sensor_id;sensor_type;location;lat;lon;timestamp;pressure;altitude;pressure_sealevel;temperature;humidity
40372;BME280;28564;53.346;-6.554;2023-07-20T00:01:44;101119.42;;;19.96;43.41
40372;BME280;28564;53.346;-6.554;2023-07-20T00:04:12;101116.98;;;19.66;43.45
40372;BME280;28564;53.346;-6.554;2023-07-20T00:06:39;101116.47;;;19.83;43.57
40372;BME280;28564;53.346;-6.554;2023-07-20T00:09:06;101120.69;;;19.51;43.66
40372;BME280;28564;53.346;-6.554;2023-07-20T00:11:36;101124.77;;;19.73;43.79
40372;BME280;28564;53.346;-6.554;2023-07-20T00:14:04;101127.33;;;19.68;43.93
40372;BME280;28564;53.346;-6.554;2023-07-20T00:16:32;101127.26;;;19.63;44.06
40372;BME280;28564;53.346;-6.554;2023-07-20T00:18:59;101127.13;;;19.59;44.16
40372;BME280;28564;53.346;-6.554;2023-07-20T00:21:26;101124.30;;;19.51;44.31
40372;BME280;28564;53.346;-6.554;2023-07-20T00:23:54;101123.25;;;19.43;44.39
40372;BME280;28564;53.346;-6.554;2023-07-20T00:26:21;101120.38;;;19.35;44.53
40372;BME280;28564;53.346;-6.554;2023-07-20T00:28:50;101122.93;;;19.33;44.71
40372;BME280;28564;53.346;-6.554;2023-07-20T00:31:17;101121.01;;;19.32;44.79
40372;BME280;28564;53.346;-6.554;2023-07-20T00:33:45;101121.88;;;19.33;44.83
40372;BME280;28564;53.346;-6.554;2023-07-20T00:36:12;101121.77;;;19.73;44.88
40372;BME280;28564;53.346;-6.554;2023-07-20T00:38:39;101121.09;;;19.48;44.91
40372;BME280;28564;53.346;-6.554;2023-07-20T00:41:06;101121.10;;;19.27;44.97
40372;BME280;28564;53.346;-6.554;2023-07-20T00:43:34;101120.64;;;19.49;45.01
40372;BME280;28564;53.346;-6.554;2023-07-20T00:46:02;101120.06;;;19.26;45.02
40372;BME280;28564;53.346;-6.554;2023-07-20T00:48:29;101119.49;;;19.49;45.05
40372;BME280;28564;53.346;-6.554;2023-07-20T00:50:58;101117.58;;;19.54;45.06
40372;BME280;28564;53.346;-6.554;2023-07-20T00:53:26;101114.75;;;19.29;45.02
40372;BME280;28564;53.346;-6.554;2023-07-20T00:55:54;101114.77;;;19.22;45.08
40372;BME280;28564;53.346;-6.554;2023-07-20T00:58:22;101114.72;;;19.16;45.20
40372;BME280;28564;53.346;-6.554;2023-07-20T01:00:51;101114.49;;;19.12;45.28
40372;BME280;28564;53.346;-6.554;2023-07-20T01:03:18;101113.84;;;19.08;45.37
40372;BME280;28564;53.346;-6.554;2023-07-20T01:05:51;101116.01;;;19.25;45.47
40372;BME280;28564;53.346;-6.554;2023-07-20T01:08:27;101115.97;;;19.46;45.58
40372;BME280;28564;53.346;-6.554;2023-07-20T01:11:05;101115.53;;;19.27;45.66
40372;BME280;28564;53.346;-6.554;2023-07-20T01:13:33;101114.55;;;19.28;45.69
40372;BME280;28564;53.346;-6.554;2023-07-20T01:16:01;101115.49;;;19.51;45.66
40372;BME280;28564;53.346;-6.554;2023-07-20T01:18:29;101118.35;;;19.06;45.69
40372;BME280;28564;53.346;-6.554;2023-07-20T01:20:59;101117.12;;;19.39;45.76
40372;BME280;28564;53.346;-6.554;2023-07-20T01:23:50;101115.88;;;18.85;45.86
40372;BME280;28564;53.346;-6.554;2023-07-20T01:26:45;101112.16;;;19.03;45.95
40372;BME280;28564;53.346;-6.554;2023-07-20T01:29:22;101112.43;;;18.99;46.00
40372;BME280;28564;53.346;-6.554;2023-07-20T01:32:00;101111.06;;;19.20;46.10
40372;BME280;28564;53.346;-6.554;2023-07-20T01:34:29;101107.41;;;18.97;46.18
40372;BME280;28564;53.346;-6.554;2023-07-20T01:36:58;101105.97;;;19.17;46.18
40372;BME280;28564;53.346;-6.554;2023-07-20T01:39:26;101110.10;;;18.87;46.27
40372;BME280;28564;53.346;-6.554;2023-07-20T01:41:55;101108.46;;;19.00;46.38
40372;BME280;28564;53.346;-6.554;2023-07-20T01:44:22;101106.66;;;18.94;46.46
40372;BME280;28564;53.346;-6.554;2023-07-20T01:46:49;101105.52;;;18.92;46.54
40372;BME280;28564;53.346;-6.554;2023-07-20T01:49:16;101106.55;;;18.93;46.57
40372;BME280;28564;53.346;-6.554;2023-07-20T01:51:43;101102.73;;;18.98;46.59
40372;BME280;28564;53.346;-6.554;2023-07-20T01:54:10;101102.04;;;18.82;46.54
40372;BME280;28564;53.346;-6.554;2023-07-20T01:56:38;101102.35;;;19.05;46.54
40372;BME280;28564;53.346;-6.554;2023-07-20T01:59:04;101097.93;;;19.01;46.50
40372;BME280;28564;53.346;-6.554;2023-07-20T02:01:32;101096.47;;;18.99;46.53
40372;BME280;28564;53.346;-6.554;2023-07-20T02:03:59;101094.60;;;18.78;46.58
40372;BME280;28564;53.346;-6.554;2023-07-20T02:06:26;101092.05;;;18.99;46.61
40372;BME280;28564;53.346;-6.554;2023-07-20T02:08:53;101089.52;;;18.96;46.61
40372;BME280;28564;53.346;-6.554;2023-07-20T02:11:21;101090.15;;;18.72;46.64
40372;BME280;28564;53.346;-6.554;2023-07-20T02:13:48;101091.67;;;18.93;46.70
40372;BME280;28564;53.346;-6.554;2023-07-20T02:16:15;101089.78;;;18.84;46.71
40372;BME280;28564;53.346;-6.554;2023-07-20T02:18:42;101087.56;;;18.78;46.80
40372;BME280;28564;53.346;-6.554;2023-07-20T02:21:09;101087.17;;;18.74;46.83
40372;BME280;28564;53.346;-6.554;2023-07-20T02:23:36;101089.18;;;18.69;46.90
40372;BME280;28564;53.346;-6.554;2023-07-20T02:26:03;101090.32;;;18.63;46.94
40372;BME280;28564;53.346;-6.554;2023-07-20T02:28:30;101089.42;;;18.59;46.99
40372;BME280;28564;53.346;-6.554;2023-07-20T02:30:57;101087.00;;;18.58;47.02
40372;BME280;28564;53.346;-6.554;2023-07-20T02:33:24;101087.78;;;18.55;47.04
40372;BME280;28564;53.346;-6.554;2023-07-20T02:35:51;101085.75;;;18.51;47.10
40372;BME280;28564;53.346;-6.554;2023-07-20T02:38:18;101081.39;;;18.27;47.16
40372;BME280;28564;53.346;-6.554;2023-07-20T02:40:45;101082.60;;;18.73;47.16
40372;BME280;28564;53.346;-6.554;2023-07-20T02:43:12;101078.61;;;18.71;47.23
40372;BME280;28564;53.346;-6.554;2023-07-20T02:45:40;101076.43;;;18.46;47.27
40372;BME280;28564;53.346;-6.554;2023-07-20T02:48:07;101075.43;;;18.72;47.28
40372;BME280;28564;53.346;-6.554;2023-07-20T02:50:34;101076.48;;;18.46;47.30
40372;BME280;28564;53.346;-6.554;2023-07-20T02:53:01;101076.85;;;18.48;47.35
40372;BME280;28564;53.346;-6.554;2023-07-20T02:55:28;101075.10;;;18.48;47.49
40372;BME280;28564;53.346;-6.554;2023-07-20T02:57:55;101074.33;;;18.44;47.51
40372;BME280;28564;53.346;-6.554;2023-07-20T03:00:23;101071.97;;;18.40;47.51
40372;BME280;28564;53.346;-6.554;2023-07-20T03:02:50;101071.03;;;18.63;47.46
40372;BME280;28564;53.346;-6.554;2023-07-20T03:05:18;101067.27;;;18.32;47.43
40372;BME280;28564;53.346;-6.554;2023-07-20T03:07:44;101066.35;;;18.30;47.47
40372;BME280;28564;53.346;-6.554;2023-07-20T03:10:12;101065.34;;;18.28;47.44
40372;BME280;28564;53.346;-6.554;2023-07-20T03:12:39;101064.23;;;18.28;47.41
40372;BME280;28564;53.346;-6.554;2023-07-20T03:15:07;101062.20;;;18.77;47.42
40372;BME280;28564;53.346;-6.554;2023-07-20T03:17:35;101061.10;;;18.56;47.41
40372;BME280;28564;53.346;-6.554;2023-07-20T03:20:02;101060.57;;;18.32;47.38
40372;BME280;28564;53.346;-6.554;2023-07-20T03:22:29;101060.29;;;18.34;47.38
40372;BME280;28564;53.346;-6.554;2023-07-20T03:24:56;101057.24;;;18.36;47.32
40372;BME280;28564;53.346;-6.554;2023-07-20T03:27:23;101059.18;;;18.37;47.28
40372;BME280;28564;53.346;-6.554;2023-07-20T03:29:51;101059.46;;;18.37;47.24
40372;BME280;28564;53.346;-6.554;2023-07-20T03:32:18;101059.10;;;18.58;47.19
40372;BME280;28564;53.346;-6.554;2023-07-20T03:34:45;101063.47;;;18.26;47.23
40372;BME280;28564;53.346;-6.554;2023-07-20T03:37:13;101064.81;;;18.48;47.28
40372;BME280;28564;53.346;-6.554;2023-07-20T03:39:40;101066.21;;;18.16;47.25
40372;BME280;28564;53.346;-6.554;2023-07-20T03:42:08;101066.73;;;18.28;47.22
40372;BME280;28564;53.346;-6.554;2023-07-20T03:44:35;101065.44;;;18.16;47.37
40372;BME280;28564;53.346;-6.554;2023-07-20T03:47:02;101063.40;;;17.80;47.43
40372;BME280;28564;53.346;-6.554;2023-07-20T03:49:30;101062.77;;;18.21;47.51
40372;BME280;28564;53.346;-6.554;2023-07-20T03:51:57;101062.55;;;18.21;47.60
40372;BME280;28564;53.346;-6.554;2023-07-20T03:54:24;101063.69;;;17.95;47.56
40372;BME280;28564;53.346;-6.554;2023-07-20T03:56:51;101067.52;;;17.86;47.56
40372;BME280;28564;53.346;-6.554;2023-07-20T03:59:18;101067.03;;;17.70;47.66
40372;BME280;28564;53.346;-6.554;2023-07-20T04:01:45;101067.71;;;17.84;47.87
40372;BME280;28564;53.346;-6.554;2023-07-20T04:04:13;101070.26;;;17.83;47.91
40372;BME280;28564;53.346;-6.554;2023-07-20T04:06:40;101071.64;;;17.60;47.98
40372;BME280;28564;53.346;-6.554;2023-07-20T04:09:07;101072.32;;;17.83;47.94
40372;BME280;28564;53.346;-6.554;2023-07-20T04:11:34;101074.41;;;17.77;47.91
40372;BME280;28564;53.346;-6.554;2023-07-20T04:14:01;101074.06;;;17.68;48.02
40372;BME280;28564;53.346;-6.554;2023-07-20T04:16:28;101074.44;;;17.62;48.08
40372;BME280;28564;53.346;-6.554;2023-07-20T04:18:55;101073.27;;;17.62;48.11
40372;BME280;28564;53.346;-6.554;2023-07-20T04:21:25;101070.42;;;17.67;48.15
40372;BME280;28564;53.346;-6.554;2023-07-20T04:23:53;101069.60;;;17.71;48.05
40372;BME280;28564;53.346;-6.554;2023-07-20T04:26:20;101065.42;;;17.72;47.87
40372;BME280;28564;53.346;-6.554;2023-07-20T04:28:47;101068.79;;;17.45;47.79
40372;BME280;28564;53.346;-6.554;2023-07-20T04:31:15;101070.28;;;17.64;47.72
40372;BME280;28564;53.346;-6.554;2023-07-20T04:33:43;101072.32;;;17.60;47.73
40372;BME280;28564;53.346;-6.554;2023-07-20T04:36:10;101068.03;;;17.55;47.71
40372;BME280;28564;53.346;-6.554;2023-07-20T04:38:37;101068.59;;;17.46;47.75
40372;BME280;28564;53.346;-6.554;2023-07-20T04:41:04;101074.84;;;17.40;47.91
40372;BME280;28564;53.346;-6.554;2023-07-20T04:43:31;101070.00;;;17.38;48.06
40372;BME280;28564;53.346;-6.554;2023-07-20T04:45:58;101068.08;;;17.41;48.07
40372;BME280;28564;53.346;-6.554;2023-07-20T04:48:25;101063.57;;;17.43;48.02
40372;BME280;28564;53.346;-6.554;2023-07-20T04:50:53;101063.79;;;17.42;48.09
40372;BME280;28564;53.346;-6.554;2023-07-20T04:53:20;101059.37;;;17.20;48.11
40372;BME280;28564;53.346;-6.554;2023-07-20T04:55:48;101059.48;;;17.43;48.14
40372;BME280;28564;53.346;-6.554;2023-07-20T04:58:17;101059.03;;;17.47;48.20
40372;BME280;28564;53.346;-6.554;2023-07-20T05:00:44;101058.09;;;17.54;48.16
40372;BME280;28564;53.346;-6.554;2023-07-20T05:03:11;101055.81;;;17.57;48.04
40372;BME280;28564;53.346;-6.554;2023-07-20T05:05:38;101054.21;;;17.33;47.96
40372;BME280;28564;53.346;-6.554;2023-07-20T05:08:05;101054.32;;;17.57;47.95
40372;BME280;28564;53.346;-6.554;2023-07-20T05:10:33;101054.97;;;17.57;48.01
40372;BME280;28564;53.346;-6.554;2023-07-20T05:13:00;101054.14;;;17.58;48.03
40372;BME280;28564;53.346;-6.554;2023-07-20T05:15:28;101053.50;;;17.60;48.04
40372;BME280;28564;53.346;-6.554;2023-07-20T05:17:55;101053.43;;;17.61;48.04
40372;BME280;28564;53.346;-6.554;2023-07-20T05:20:22;101046.63;;;17.61;48.02
40372;BME280;28564;53.346;-6.554;2023-07-20T05:22:49;101044.69;;;17.58;48.01
40372;BME280;28564;53.346;-6.554;2023-07-20T05:25:16;101043.66;;;17.53;48.11
40372;BME280;28564;53.346;-6.554;2023-07-20T05:27:45;101042.74;;;17.33;48.27
40372;BME280;28564;53.346;-6.554;2023-07-20T05:30:12;101043.79;;;17.59;48.38
40372;BME280;28564;53.346;-6.554;2023-07-20T05:32:40;101041.74;;;17.56;48.30
40372;BME280;28564;53.346;-6.554;2023-07-20T05:35:08;101044.26;;;17.62;48.36
40372;BME280;28564;53.346;-6.554;2023-07-20T05:37:35;101043.34;;;17.68;48.36
40372;BME280;28564;53.346;-6.554;2023-07-20T05:40:03;101044.49;;;17.48;48.30
40372;BME280;28564;53.346;-6.554;2023-07-20T05:42:30;101043.80;;;17.71;48.26
40372;BME280;28564;53.346;-6.554;2023-07-20T05:44:57;101045.62;;;17.49;48.30
40372;BME280;28564;53.346;-6.554;2023-07-20T05:47:24;101045.46;;;17.79;48.32
40372;BME280;28564;53.346;-6.554;2023-07-20T05:49:52;101042.43;;;17.82;48.24
40372;BME280;28564;53.346;-6.554;2023-07-20T05:52:19;101047.82;;;17.81;48.21
40372;BME280;28564;53.346;-6.554;2023-07-20T05:54:46;101050.22;;;17.77;48.30
40372;BME280;28564;53.346;-6.554;2023-07-20T05:57:13;101050.56;;;17.71;48.40
40372;BME280;28564;53.346;-6.554;2023-07-20T05:59:40;101049.98;;;17.64;48.56
40372;BME280;28564;53.346;-6.554;2023-07-20T06:02:07;101052.12;;;17.57;48.64
40372;BME280;28564;53.346;-6.554;2023-07-20T06:04:34;101054.37;;;17.54;48.76
40372;BME280;28564;53.346;-6.554;2023-07-20T06:07:01;101056.25;;;17.54;48.84
40372;BME280;28564;53.346;-6.554;2023-07-20T06:09:28;101056.26;;;17.53;48.81
40372;BME280;28564;53.346;-6.554;2023-07-20T06:11:55;101058.05;;;17.54;48.78
40372;BME280;28564;53.346;-6.554;2023-07-20T06:14:22;101059.61;;;17.54;48.86
40372;BME280;28564;53.346;-6.554;2023-07-20T06:16:49;101061.17;;;17.58;48.87
40372;BME280;28564;53.346;-6.554;2023-07-20T06:19:16;101065.73;;;17.61;48.75
40372;BME280;28564;53.346;-6.554;2023-07-20T06:21:43;101066.54;;;17.59;48.87
40372;BME280;28564;53.346;-6.554;2023-07-20T06:24:10;101067.32;;;17.59;48.77
40372;BME280;28564;53.346;-6.554;2023-07-20T06:26:38;101065.76;;;17.57;48.72
40372;BME280;28564;53.346;-6.554;2023-07-20T06:29:06;101066.81;;;17.57;48.84
40372;BME280;28564;53.346;-6.554;2023-07-20T06:31:34;101068.15;;;17.32;48.86
40372;BME280;28564;53.346;-6.554;2023-07-20T06:34:02;101072.16;;;17.52;48.89
40372;BME280;28564;53.346;-6.554;2023-07-20T06:36:29;101074.48;;;17.49;48.99
40372;BME280;28564;53.346;-6.554;2023-07-20T06:38:56;101076.29;;;17.45;48.92
40372;BME280;28564;53.346;-6.554;2023-07-20T06:41:23;101082.72;;;17.40;49.19
40372;BME280;28564;53.346;-6.554;2023-07-20T06:43:50;101084.69;;;17.33;49.26
40372;BME280;28564;53.346;-6.554;2023-07-20T06:46:17;101085.87;;;17.29;49.41
40372;BME280;28564;53.346;-6.554;2023-07-20T06:48:44;101085.84;;;17.30;49.43
40372;BME280;28564;53.346;-6.554;2023-07-20T06:51:12;101086.38;;;17.32;49.49
40372;BME280;28564;53.346;-6.554;2023-07-20T06:53:39;101088.66;;;17.41;49.51
40372;BME280;28564;53.346;-6.554;2023-07-20T06:56:06;101088.66;;;17.48;49.41
40372;BME280;28564;53.346;-6.554;2023-07-20T06:58:33;101084.23;;;17.58;49.37
40372;BME280;28564;53.346;-6.554;2023-07-20T07:01:04;101084.44;;;17.42;49.04
40372;BME280;28564;53.346;-6.554;2023-07-20T07:03:31;101080.51;;;17.56;48.80
40372;BME280;28564;53.346;-6.554;2023-07-20T07:05:58;101081.41;;;17.49;48.84
40372;BME280;28564;53.346;-6.554;2023-07-20T07:08:26;101086.87;;;17.43;48.92
40372;BME280;28564;53.346;-6.554;2023-07-20T07:10:53;101091.93;;;17.17;49.02
40372;BME280;28564;53.346;-6.554;2023-07-20T07:13:20;101087.89;;;17.45;49.12
40372;BME280;28564;53.346;-6.554;2023-07-20T07:15:47;101085.73;;;17.28;49.13
40372;BME280;28564;53.346;-6.554;2023-07-20T07:18:15;101083.68;;;17.53;49.07
40372;BME280;28564;53.346;-6.554;2023-07-20T07:20:42;101081.51;;;17.56;48.93
40372;BME280;28564;53.346;-6.554;2023-07-20T07:23:16;101079.45;;;17.55;48.93
40372;BME280;28564;53.346;-6.554;2023-07-20T07:25:43;101081.02;;;17.54;49.03
40372;BME280;28564;53.346;-6.554;2023-07-20T07:28:10;101082.79;;;17.59;49.06
40372;BME280;28564;53.346;-6.554;2023-07-20T07:30:37;101078.55;;;17.66;49.01
40372;BME280;28564;53.346;-6.554;2023-07-20T07:33:05;101078.48;;;17.79;48.97
40372;BME280;28564;53.346;-6.554;2023-07-20T07:35:32;101081.35;;;17.87;48.49
40372;BME280;28564;53.346;-6.554;2023-07-20T07:37:59;101080.46;;;17.73;48.40
40372;BME280;28564;53.346;-6.554;2023-07-20T07:40:26;101083.29;;;18.10;48.42
40372;BME280;28564;53.346;-6.554;2023-07-20T07:42:53;101080.62;;;18.03;48.23
40372;BME280;28564;53.346;-6.554;2023-07-20T07:45:20;101078.19;;;17.85;47.77
40372;BME280;28564;53.346;-6.554;2023-07-20T07:47:47;101078.23;;;17.88;47.52
40372;BME280;28564;53.346;-6.554;2023-07-20T07:50:15;101076.66;;;18.23;47.39
40372;BME280;28564;53.346;-6.554;2023-07-20T07:52:43;101077.38;;;18.27;47.36
40372;BME280;28564;53.346;-6.554;2023-07-20T07:55:10;101076.66;;;18.08;47.35
40372;BME280;28564;53.346;-6.554;2023-07-20T07:57:37;101078.15;;;18.14;47.22
40372;BME280;28564;53.346;-6.554;2023-07-20T08:00:06;101078.74;;;18.48;47.25
40372;BME280;28564;53.346;-6.554;2023-07-20T08:02:33;101078.20;;;18.58;47.07
40372;BME280;28564;53.346;-6.554;2023-07-20T08:05:00;101079.29;;;18.44;46.89
40372;BME280;28564;53.346;-6.554;2023-07-20T08:07:27;101077.15;;;18.49;46.02
40372;BME280;28564;53.346;-6.554;2023-07-20T08:09:55;101078.81;;;18.53;45.80
40372;BME280;28564;53.346;-6.554;2023-07-20T08:12:22;101078.02;;;18.60;45.52
40372;BME280;28564;53.346;-6.554;2023-07-20T08:14:49;101076.78;;;18.68;45.42
40372;BME280;28564;53.346;-6.554;2023-07-20T08:17:16;101071.84;;;18.77;45.40
40372;BME280;28564;53.346;-6.554;2023-07-20T08:19:43;101064.21;;;18.43;45.39
40372;BME280;28564;53.346;-6.554;2023-07-20T08:22:11;101066.27;;;18.95;44.78
40372;BME280;28564;53.346;-6.554;2023-07-20T08:24:39;101066.94;;;18.51;43.55
40372;BME280;28564;53.346;-6.554;2023-07-20T08:27:07;101065.92;;;18.94;43.15
40372;BME280;28564;53.346;-6.554;2023-07-20T08:29:35;101063.26;;;18.75;43.15
40372;BME280;28564;53.346;-6.554;2023-07-20T08:32:03;101064.85;;;19.06;43.22
40372;BME280;28564;53.346;-6.554;2023-07-20T08:34:31;101064.32;;;19.20;43.19
40372;BME280;28564;53.346;-6.554;2023-07-20T08:36:58;101066.63;;;19.43;43.24
40372;BME280;28564;53.346;-6.554;2023-07-20T08:39:26;101069.72;;;19.28;42.59
40372;BME280;28564;53.346;-6.554;2023-07-20T08:41:53;101069.76;;;19.56;41.84
40372;BME280;28564;53.346;-6.554;2023-07-20T08:44:21;101068.28;;;19.82;41.67
40372;BME280;28564;53.346;-6.554;2023-07-20T08:46:49;101068.87;;;19.82;41.40
40372;BME280;28564;53.346;-6.554;2023-07-20T08:49:19;101065.92;;;19.96;41.36
40372;BME280;28564;53.346;-6.554;2023-07-20T08:51:46;101067.01;;;20.36;39.92
40372;BME280;28564;53.346;-6.554;2023-07-20T08:54:16;101070.42;;;20.57;39.32
40372;BME280;28564;53.346;-6.554;2023-07-20T08:56:45;101067.77;;;20.64;38.83
40372;BME280;28564;53.346;-6.554;2023-07-20T08:59:15;101067.96;;;20.60;38.68
40372;BME280;28564;53.346;-6.554;2023-07-20T09:01:44;101067.13;;;20.56;38.68
40372;BME280;28564;53.346;-6.554;2023-07-20T09:04:11;101066.05;;;20.71;38.76
40372;BME280;28564;53.346;-6.554;2023-07-20T09:06:39;101067.72;;;20.47;39.09
40372;BME280;28564;53.346;-6.554;2023-07-20T09:09:06;101068.06;;;20.68;39.10
40372;BME280;28564;53.346;-6.554;2023-07-20T09:11:33;101068.19;;;20.46;38.90
40372;BME280;28564;53.346;-6.554;2023-07-20T09:14:03;101066.80;;;20.46;39.09
40372;BME280;28564;53.346;-6.554;2023-07-20T09:16:31;101063.37;;;20.48;38.70
40372;BME280;28564;53.346;-6.554;2023-07-20T09:18:59;101064.76;;;20.53;38.85
40372;BME280;28564;53.346;-6.554;2023-07-20T09:21:29;101066.37;;;20.60;38.96
40372;BME280;28564;53.346;-6.554;2023-07-20T09:23:56;101066.69;;;20.69;38.75
40372;BME280;28564;53.346;-6.554;2023-07-20T09:26:24;101067.38;;;20.79;38.87
40372;BME280;28564;53.346;-6.554;2023-07-20T09:28:52;101065.44;;;20.68;38.93
40372;BME280;28564;53.346;-6.554;2023-07-20T09:31:21;101065.24;;;20.89;38.88
40372;BME280;28564;53.346;-6.554;2023-07-20T09:33:50;101062.78;;;21.30;38.64
40372;BME280;28564;53.346;-6.554;2023-07-20T09:36:19;101067.47;;;20.91;37.50
40372;BME280;28564;53.346;-6.554;2023-07-20T09:38:47;101060.93;;;20.91;37.77
40372;BME280;28564;53.346;-6.554;2023-07-20T09:41:15;101063.46;;;21.33;38.08
40372;BME280;28564;53.346;-6.554;2023-07-20T09:43:42;101064.36;;;21.23;37.61
40372;BME280;28564;53.346;-6.554;2023-07-20T09:46:09;101059.65;;;21.27;37.59
40372;BME280;28564;53.346;-6.554;2023-07-20T09:48:36;101060.98;;;21.80;37.30
40372;BME280;28564;53.346;-6.554;2023-07-20T09:51:03;101059.56;;;21.99;37.18
40372;BME280;28564;53.346;-6.554;2023-07-20T09:53:32;101055.89;;;22.06;36.69
40372;BME280;28564;53.346;-6.554;2023-07-20T09:56:00;101050.88;;;21.96;36.83
40372;BME280;28564;53.346;-6.554;2023-07-20T09:58:29;101056.02;;;21.82;36.70
40372;BME280;28564;53.346;-6.554;2023-07-20T10:00:59;101049.91;;;21.99;36.40
40372;BME280;28564;53.346;-6.554;2023-07-20T10:03:30;101048.43;;;22.24;36.75
40372;BME280;28564;53.346;-6.554;2023-07-20T10:06:02;101046.41;;;22.31;36.52
40372;BME280;28564;53.346;-6.554;2023-07-20T10:08:37;101050.44;;;22.40;36.45
40372;BME280;28564;53.346;-6.554;2023-07-20T10:11:05;101049.48;;;22.02;36.17
40372;BME280;28564;53.346;-6.554;2023-07-20T10:13:38;101050.20;;;22.13;36.26
40372;BME280;28564;53.346;-6.554;2023-07-20T10:16:11;101050.77;;;22.15;36.30
40372;BME280;28564;53.346;-6.554;2023-07-20T10:18:49;101051.54;;;22.33;35.70
40372;BME280;28564;53.346;-6.554;2023-07-20T10:21:17;101056.46;;;22.40;33.92
40372;BME280;28564;53.346;-6.554;2023-07-20T10:23:46;101052.06;;;22.27;34.48
40372;BME280;28564;53.346;-6.554;2023-07-20T10:26:14;101053.94;;;22.16;34.81
40372;BME280;28564;53.346;-6.554;2023-07-20T10:28:42;101051.28;;;22.37;35.03
40372;BME280;28564;53.346;-6.554;2023-07-20T10:31:11;101055.19;;;22.31;35.12
40372;BME280;28564;53.346;-6.554;2023-07-20T10:33:39;101049.45;;;22.35;35.33
40372;BME280;28564;53.346;-6.554;2023-07-20T10:36:07;101046.92;;;22.24;35.79
40372;BME280;28564;53.346;-6.554;2023-07-20T10:38:39;101048.66;;;21.90;35.64
40372;BME280;28564;53.346;-6.554;2023-07-20T10:41:16;101053.80;;;21.75;35.98
40372;BME280;28564;53.346;-6.554;2023-07-20T10:43:45;101056.48;;;21.85;36.16
40372;BME280;28564;53.346;-6.554;2023-07-20T10:46:14;101057.40;;;21.69;35.49
40372;BME280;28564;53.346;-6.554;2023-07-20T10:49:15;101055.18;;;21.85;35.72
40372;BME280;28564;53.346;-6.554;2023-07-20T10:51:43;101052.10;;;21.56;34.86
40372;BME280;28564;53.346;-6.554;2023-07-20T10:54:34;101047.35;;;21.46;34.59
40372;BME280;28564;53.346;-6.554;2023-07-20T10:57:23;101048.23;;;21.83;34.44
40372;BME280;28564;53.346;-6.554;2023-07-20T10:59:51;101046.52;;;22.45;33.35
40372;BME280;28564;53.346;-6.554;2023-07-20T11:02:19;101045.71;;;22.28;33.34
40372;BME280;28564;53.346;-6.554;2023-07-20T11:04:47;101038.76;;;22.87;32.84
40372;BME280;28564;53.346;-6.554;2023-07-20T11:07:16;101033.69;;;22.71;32.28
40372;BME280;28564;53.346;-6.554;2023-07-20T11:09:43;101027.79;;;22.69;32.38
40372;BME280;28564;53.346;-6.554;2023-07-20T11:12:13;101024.67;;;22.84;31.85
40372;BME280;28564;53.346;-6.554;2023-07-20T11:14:42;101020.04;;;22.97;31.50
40372;BME280;28564;53.346;-6.554;2023-07-20T11:17:15;101017.72;;;23.12;31.81
40372;BME280;28564;53.346;-6.554;2023-07-20T11:19:42;101019.39;;;23.57;31.14
40372;BME280;28564;53.346;-6.554;2023-07-20T11:22:10;101011.63;;;23.58;30.69
40372;BME280;28564;53.346;-6.554;2023-07-20T11:24:39;101011.97;;;23.85;31.27
40372;BME280;28564;53.346;-6.554;2023-07-20T11:27:06;101007.01;;;24.04;30.89
40372;BME280;28564;53.346;-6.554;2023-07-20T11:29:35;101009.13;;;24.18;30.41
40372;BME280;28564;53.346;-6.554;2023-07-20T11:32:03;101010.04;;;23.93;30.48
40372;BME280;28564;53.346;-6.554;2023-07-20T11:34:31;101009.33;;;23.86;30.02
40372;BME280;28564;53.346;-6.554;2023-07-20T11:36:59;101008.34;;;23.76;30.66
40372;BME280;28564;53.346;-6.554;2023-07-20T11:39:27;101004.53;;;23.92;29.98
40372;BME280;28564;53.346;-6.554;2023-07-20T11:41:57;101010.03;;;23.93;30.11
40372;BME280;28564;53.346;-6.554;2023-07-20T11:44:26;101005.44;;;23.88;29.91
40372;BME280;28564;53.346;-6.554;2023-07-20T11:47:03;101009.45;;;23.70;30.37
40372;BME280;28564;53.346;-6.554;2023-07-20T11:49:34;101009.35;;;23.62;30.77
40372;BME280;28564;53.346;-6.554;2023-07-20T11:52:02;101011.21;;;23.56;31.10
40372;BME280;28564;53.346;-6.554;2023-07-20T11:54:31;101007.19;;;23.62;31.28
40372;BME280;28564;53.346;-6.554;2023-07-20T11:57:01;101012.31;;;23.69;31.55
40372;BME280;28564;53.346;-6.554;2023-07-20T11:59:28;101009.50;;;23.90;31.41
40372;BME280;28564;53.346;-6.554;2023-07-20T12:01:56;101010.84;;;24.13;31.46
40372;BME280;28564;53.346;-6.554;2023-07-20T12:04:23;101010.50;;;24.32;31.42
40372;BME280;28564;53.346;-6.554;2023-07-20T12:06:53;101011.21;;;24.45;30.34
40372;BME280;28564;53.346;-6.554;2023-07-20T12:09:20;101008.88;;;24.06;29.23
40372;BME280;28564;53.346;-6.554;2023-07-20T12:11:50;101004.82;;;24.45;29.63
40372;BME280;28564;53.346;-6.554;2023-07-20T12:14:17;101004.07;;;24.57;29.57
40372;BME280;28564;53.346;-6.554;2023-07-20T12:16:53;101003.28;;;24.92;29.45
40372;BME280;28564;53.346;-6.554;2023-07-20T12:19:20;101001.11;;;25.29;29.42
40372;BME280;28564;53.346;-6.554;2023-07-20T12:21:47;101000.56;;;25.21;28.48
40372;BME280;28564;53.346;-6.554;2023-07-20T12:24:15;100992.60;;;25.11;28.68
40372;BME280;28564;53.346;-6.554;2023-07-20T12:26:44;100991.91;;;25.31;28.76
40372;BME280;28564;53.346;-6.554;2023-07-20T12:29:12;100993.08;;;25.06;28.62
40372;BME280;28564;53.346;-6.554;2023-07-20T12:31:39;100993.57;;;25.22;28.62
40372;BME280;28564;53.346;-6.554;2023-07-20T12:34:06;100989.36;;;24.73;29.14
40372;BME280;28564;53.346;-6.554;2023-07-20T12:36:34;100992.35;;;24.23;29.97
40372;BME280;28564;53.346;-6.554;2023-07-20T12:39:02;100995.12;;;23.81;30.49
40372;BME280;28564;53.346;-6.554;2023-07-20T12:41:29;100993.35;;;23.94;30.56
40372;BME280;28564;53.346;-6.554;2023-07-20T12:43:56;100994.20;;;23.69;30.70
40372;BME280;28564;53.346;-6.554;2023-07-20T12:46:24;100992.01;;;23.51;30.82